Time;durP1;ratioP1;P1;durP2;ratioP2;P2;SDS_P1;SDS_P2;PMS_P1;PMS_P2;Temp;Humidity;BMP_temperature;BMP_pressure;BME280_temperature;BME280_humidity;BME280_pressure;Samples;Min_cycle;Max_cycle;Signal;HPM_P1;HPM_P2
2022/10/10 00:01:30;;;;;;;17.33;7.50;;;;;;;8.52;100.00;96832.03;4971885;28;20387;-69
2022/10/10 00:03:56;;;;;;;12.17;7.17;;;;;;;8.50;100.00;96828.84;4972825;28;20041;-69
2022/10/10 00:06:23;;;;;;;13.80;9.07;;;;;;;8.40;100.00;96828.16;4971595;28;20035;-69
2022/10/10 00:08:49;;;;;;;11.65;7.50;;;;;;;8.38;100.00;96822.28;4971631;28;20038;-69
2022/10/10 00:11:17;;;;;;;12.27;7.72;;;;;;;8.40;100.00;96832.84;4970300;28;20035;-69
2022/10/10 00:13:43;;;;;;;12.85;7.22;;;;;;;8.41;100.00;96831.72;4971443;28;20521;-69
2022/10/10 00:16:10;;;;;;;13.02;7.93;;;;;;;8.57;100.00;96832.56;4970766;28;20053;-68
2022/10/10 00:18:36;;;;;;;13.40;7.90;;;;;;;8.57;100.00;96829.84;4971370;28;20034;-68
2022/10/10 00:21:02;;;;;;;15.13;8.32;;;;;;;8.46;100.00;96830.69;4971575;28;20089;-68
2022/10/10 00:23:27;;;;;;;13.18;7.68;;;;;;;8.38;100.00;96837.88;4970156;28;20034;-68
2022/10/10 00:25:53;;;;;;;11.50;7.55;;;;;;;8.34;100.00;96831.53;4970782;28;20097;-68
2022/10/10 00:28:18;;;;;;;14.70;8.77;;;;;;;8.28;100.00;96827.44;4971259;28;20038;-69
2022/10/10 00:30:44;;;;;;;11.00;8.80;;;;;;;8.30;100.00;96833.34;4971374;28;20042;-68
2022/10/10 00:33:09;;;;;;;11.25;8.05;;;;;;;8.42;100.00;96830.59;4970420;28;20053;-68
2022/10/10 00:35:35;;;;;;;13.02;8.30;;;;;;;8.55;100.00;96832.13;4970775;28;20096;-68
2022/10/10 00:38:00;;;;;;;12.25;7.53;;;;;;;8.73;100.00;96832.59;4971427;28;20420;-68
2022/10/10 00:40:27;;;;;;;16.73;7.15;;;;;;;8.73;100.00;96829.03;4971737;28;20368;-69
2022/10/10 00:42:52;;;;;;;12.75;7.97;;;;;;;8.74;100.00;96831.44;4971640;28;20033;-68
2022/10/10 00:45:38;;;;;;;9.80;6.80;;;;;;;8.72;100.00;96831.00;4970059;28;20134;-69
2022/10/10 00:48:11;;;;;;;10.93;7.70;;;;;;;8.57;100.00;96829.03;4971031;28;20078;-70
2022/10/10 00:50:41;;;;;;;10.63;7.35;;;;;;;8.54;100.00;96824.28;4973672;28;20034;-69
2022/10/10 00:53:09;;;;;;;9.07;6.65;;;;;;;8.61;100.00;96827.97;4974639;28;20035;-70
2022/10/10 00:55:36;;;;;;;11.88;7.47;;;;;;;8.71;100.00;96826.66;4974058;28;20826;-68
2022/10/10 00:58:05;;;;;;;13.02;7.47;;;;;;;8.64;100.00;96831.16;4973652;28;20122;-71
2022/10/10 01:00:30;;;;;;;13.93;7.80;;;;;;;8.62;100.00;96828.75;4974791;28;20372;-70
2022/10/10 01:02:56;;;;;;;14.43;6.60;;;;;;;8.60;100.00;96831.84;4975011;28;20038;-70
2022/10/10 01:05:22;;;;;;;13.40;6.72;;;;;;;8.71;100.00;96826.66;4974346;28;20038;-68
2022/10/10 01:07:47;;;;;;;12.07;6.25;;;;;;;8.79;100.00;96825.72;4974434;28;20031;-68
2022/10/10 01:10:19;;;;;;;8.57;5.95;;;;;;;8.87;100.00;96826.66;4981217;28;20030;-68
2022/10/10 01:12:54;;;;;;;9.10;6.65;;;;;;;8.91;100.00;96829.50;4994246;28;20395;-69
2022/10/10 01:15:29;;;;;;;13.93;6.70;;;;;;;8.97;100.00;96819.91;4993632;28;20030;-69
2022/10/10 01:17:57;;;;;;;9.73;6.75;;;;;;;8.99;100.00;96817.59;4993615;28;20040;-70
2022/10/10 01:21:08;;;;;;;10.30;5.68;;;;;;;9.05;100.00;96823.59;4994026;28;20050;-69
2022/10/10 01:24:10;;;;;;;11.57;7.43;;;;;;;9.04;100.00;96827.47;4963730;28;20415;-70
2022/10/10 01:27:03;;;;;;;10.48;6.70;;;;;;;9.07;100.00;96822.06;4991826;28;20033;-69
2022/10/10 01:29:46;;;;;;;11.60;7.00;;;;;;;9.14;100.00;96821.47;5008864;28;20026;-68
2022/10/10 01:32:23;;;;;;;11.85;7.47;;;;;;;9.11;100.00;96824.91;5015898;28;20038;-69
2022/10/10 01:34:59;;;;;;;11.02;6.35;;;;;;;9.13;100.00;96826.16;5006884;28;20030;-68
2022/10/10 01:37:42;;;;;;;13.48;6.28;;;;;;;9.04;100.00;96820.06;4994136;28;20038;-68
2022/10/10 01:40:10;;;;;;;9.35;6.85;;;;;;;8.91;100.00;96815.84;4993241;28;20770;-68
2022/10/10 01:42:53;;;;;;;10.98;6.80;;;;;;;8.90;100.00;96817.00;4993555;28;20394;-69
2022/10/10 01:45:19;;;;;;;12.35;7.10;;;;;;;8.99;100.00;96821.13;4993655;28;20080;-68
2022/10/10 01:47:45;;;;;;;14.35;6.63;;;;;;;9.04;100.00;96828.28;4992668;28;20049;-67
2022/10/10 01:50:16;;;;;;;8.80;6.50;;;;;;;8.94;100.00;96826.06;4994484;28;20058;-67
2022/10/10 01:53:10;;;;;;;11.05;8.07;;;;;;;8.67;100.00;96820.31;4992359;28;20391;-68
2022/10/10 01:55:47;;;;;;;14.13;7.22;;;;;;;8.55;100.00;96831.31;4998205;28;20193;-73
2022/10/10 01:58:47;;;;;;;16.98;7.85;;;;;;;8.32;100.00;96820.13;5009948;28;20213;-69
2022/10/10 02:01:21;;;;;;;11.45;7.97;;;;;;;8.26;100.00;96816.88;5010085;28;20035;-68
2022/10/10 02:03:52;;;;;;;12.75;8.00;;;;;;;8.30;100.00;96822.41;4992443;28;20344;-68
2022/10/10 02:06:43;;;;;;;11.73;7.75;;;;;;;8.52;100.00;96816.44;4989148;28;20030;-68
2022/10/10 02:09:17;;;;;;;14.02;7.32;;;;;;;8.63;100.00;96805.78;5001263;28;20447;-68
2022/10/10 02:11:43;;;;;;;12.27;7.60;;;;;;;8.80;100.00;96807.38;4996100;28;20037;-68
2022/10/10 02:14:20;;;;;;;14.85;7.78;;;;;;;8.89;100.00;96813.44;4993940;28;20050;-68
2022/10/10 02:16:49;;;;;;;13.23;6.82;;;;;;;8.93;100.00;96817.09;4992537;28;20068;-67
2022/10/10 02:19:18;;;;;;;9.30;6.60;;;;;;;8.90;100.00;96809.59;4993107;28;20419;-69
2022/10/10 02:21:49;;;;;;;12.95;7.38;;;;;;;8.92;100.00;96811.97;4991573;28;20034;-69
2022/10/10 02:24:17;;;;;;;11.45;7.07;;;;;;;8.97;100.00;96798.84;4992879;28;20081;-69
2022/10/10 02:26:47;;;;;;;9.73;6.88;;;;;;;9.05;100.00;96807.97;4992063;28;20534;-69
2022/10/10 02:29:23;;;;;;;8.27;6.22;;;;;;;9.09;100.00;96802.59;4992845;28;20053;-68
2022/10/10 02:32:07;;;;;;;14.85;7.47;;;;;;;8.94;100.00;96804.22;4992777;28;20088;-70
2022/10/10 02:34:37;;;;;;;10.88;7.65;;;;;;;8.80;100.00;96801.91;4992480;28;20042;-70
2022/10/10 02:37:05;;;;;;;;;;;;;;;8.69;100.00;96801.66;4992593;28;20112;-70
2022/10/10 02:39:35;;;;;;;11.00;7.57;;;;;;;8.60;100.00;96804.53;4991875;28;19914;-69
2022/10/10 02:42:04;;;;;;;11.68;7.88;;;;;;;8.55;100.00;96801.28;4992176;28;20037;-69
2022/10/10 02:44:31;;;;;;;11.85;8.50;;;;;;;8.52;100.00;96796.53;4991177;28;20030;-69
2022/10/10 02:46:57;;;;;;;12.35;8.57;;;;;;;8.43;100.00;96802.16;4990356;28;20427;-70
2022/10/10 02:49:25;;;;;;;14.50;8.95;;;;;;;8.36;100.00;96800.00;4990457;28;20026;-69
2022/10/10 02:51:51;;;;;;;12.98;9.70;;;;;;;8.32;100.00;96810.03;4992422;28;20547;-69
2022/10/10 02:54:16;;;;;;;12.35;9.65;;;;;;;8.36;100.00;96802.72;4990804;28;20034;-70
2022/10/10 02:56:42;;;;;;;13.13;9.20;;;;;;;8.46;100.00;96798.72;4991469;28;20113;-70
2022/10/10 02:59:07;;;;;;;12.20;8.63;;;;;;;8.54;100.00;96805.16;4990686;28;20034;-69
2022/10/10 03:01:32;;;;;;;15.18;9.85;;;;;;;8.57;100.00;96807.19;4991914;28;20034;-69
2022/10/10 03:03:58;;;;;;;12.70;8.40;;;;;;;8.59;100.00;96804.91;4991679;28;20033;-70
2022/10/10 03:06:23;;;;;;;16.70;8.82;;;;;;;8.63;100.00;96807.75;4991388;28;20472;-69
2022/10/10 03:08:48;;;;;;;17.88;8.13;;;;;;;8.63;100.00;96810.47;4991455;28;20084;-70
2022/10/10 03:11:14;;;;;;;15.80;8.68;;;;;;;8.60;100.00;96798.28;4991232;28;20034;-69
2022/10/10 03:13:39;;;;;;;12.65;8.18;;;;;;;8.73;100.00;96801.72;4991545;28;20042;-69
2022/10/10 03:16:05;;;;;;;10.57;7.90;;;;;;;8.84;100.00;96811.00;4989676;28;20084;-69
2022/10/10 03:18:31;;;;;;;16.38;8.02;;;;;;;8.89;100.00;96801.75;4991738;28;20120;-69
2022/10/10 03:20:56;;;;;;;9.65;7.13;;;;;;;9.01;100.00;96807.13;4991437;28;20026;-69
2022/10/10 03:23:24;;;;;;;14.38;7.80;;;;;;;9.04;100.00;96808.34;4991584;28;20026;-70
2022/10/10 03:25:49;;;;;;;11.38;7.22;;;;;;;9.10;100.00;96813.19;4992782;28;20038;-70
2022/10/10 03:28:15;;;;;;;12.73;7.10;;;;;;;9.11;100.00;96797.56;4997892;28;20377;-68
2022/10/10 03:30:41;;;;;;;17.30;7.07;;;;;;;9.17;100.00;96809.84;4992170;28;20027;-69
2022/10/10 03:33:07;;;;;;;11.15;6.82;;;;;;;9.21;100.00;96804.47;4992009;28;20391;-70
2022/10/10 03:35:33;;;;;;;15.20;7.15;;;;;;;9.24;100.00;96809.19;4993831;28;20414;-69
2022/10/10 03:37:59;;;;;;;9.88;7.05;;;;;;;9.26;100.00;96813.16;4993456;28;20032;-69
2022/10/10 03:40:26;;;;;;;9.80;7.00;;;;;;;9.26;100.00;96807.72;4991015;28;20042;-69
2022/10/10 03:42:51;;;;;;;9.00;6.40;;;;;;;9.28;100.00;96810.88;4992525;28;20030;-69
2022/10/10 03:45:17;;;;;;;10.07;6.82;;;;;;;9.24;100.00;96810.00;4991748;28;20442;-69
2022/10/10 03:47:43;;;;;;;10.48;5.75;;;;;;;9.27;100.00;96806.53;4994696;28;20038;-68
2022/10/10 03:50:09;;;;;;;8.90;5.90;;;;;;;9.26;100.00;96809.66;5004463;28;20141;-69
2022/10/10 03:52:34;;;;;;;9.70;6.07;;;;;;;9.22;100.00;96806.03;5001677;28;20030;-69
2022/10/10 03:55:00;;;;;;;13.75;5.80;;;;;;;9.23;100.00;96802.16;4991332;28;20042;-69
2022/10/10 03:57:25;;;;;;;9.85;5.82;;;;;;;9.19;100.00;96808.31;4990549;28;20034;-69
2022/10/10 03:59:51;;;;;;;10.93;6.32;;;;;;;9.20;100.00;96806.41;4991244;28;20039;-68
2022/10/10 04:02:16;;;;;;;9.98;6.20;;;;;;;9.20;100.00;96803.66;4991110;28;20034;-68
2022/10/10 04:04:41;;;;;;;14.23;6.70;;;;;;;9.09;100.00;96800.69;4991206;28;20485;-69
2022/10/10 04:07:07;;;;;;;13.32;6.68;;;;;;;8.88;100.00;96797.44;4990568;28;20030;-69
2022/10/10 04:09:32;;;;;;;12.38;7.53;;;;;;;8.67;100.00;96797.69;4990942;28;20467;-68
2022/10/10 04:11:58;;;;;;;12.48;7.80;;;;;;;8.64;100.00;96799.16;4991072;28;20037;-69
2022/10/10 04:14:24;;;;;;;9.80;7.20;;;;;;;8.74;100.00;96806.06;4990219;28;20410;-69
2022/10/10 04:16:49;;;;;;;19.52;7.60;;;;;;;8.85;100.00;96803.59;4989444;28;20030;-69
2022/10/10 04:19:14;;;;;;;15.30;9.07;;;;;;;8.78;100.00;96799.53;4990924;28;20026;-69
2022/10/10 04:21:40;;;;;;;17.67;8.10;;;;;;;8.83;100.00;96803.16;4990966;28;20057;-68
2022/10/10 04:24:05;;;;;;;10.35;8.20;;;;;;;8.86;100.00;96805.16;4992550;28;20030;-70
2022/10/10 04:26:31;;;;;;;16.90;8.45;;;;;;;8.93;100.00;96810.81;4992939;28;20030;-70
2022/10/10 04:28:56;;;;;;;13.55;8.40;;;;;;;9.03;100.00;96804.03;4994787;28;20042;-68
2022/10/10 04:31:22;;;;;;;11.77;8.05;;;;;;;9.11;100.00;96806.59;4994564;28;20045;-71
2022/10/10 04:33:48;;;;;;;12.52;7.72;;;;;;;9.15;100.00;96802.00;4994834;28;20108;-69
2022/10/10 04:36:13;;;;;;;12.85;7.68;;;;;;;9.16;100.00;96805.50;4994041;28;20455;-69
2022/10/10 04:38:39;;;;;;;10.85;7.35;;;;;;;9.16;100.00;96811.78;4994699;28;20065;-69
2022/10/10 04:41:04;;;;;;;10.68;7.43;;;;;;;9.15;100.00;96809.41;4995042;28;20475;-68
2022/10/10 04:43:30;;;;;;;12.35;6.82;;;;;;;9.11;100.00;96808.50;4994958;28;20093;-69
2022/10/10 04:45:57;;;;;;;10.45;7.07;;;;;;;9.14;100.00;96808.59;4994201;28;20026;-69
2022/10/10 04:48:22;;;;;;;9.07;6.93;;;;;;;9.06;100.00;96809.59;4993760;28;20080;-68
2022/10/10 04:50:56;;;;;;;12.68;7.28;;;;;;;9.08;100.00;96814.69;4993661;28;20066;-69
2022/10/10 04:53:23;;;;;;;13.93;7.47;;;;;;;9.11;100.00;96817.50;4994696;28;20121;-69
2022/10/10 04:55:49;;;;;;;14.27;7.28;;;;;;;9.03;100.00;96814.97;4993844;28;20197;-69
2022/10/10 04:58:15;;;;;;;16.40;7.68;;;;;;;9.04;100.00;96808.34;4994271;28;20030;-69
2022/10/10 05:00:40;;;;;;;14.15;7.03;;;;;;;9.01;100.00;96809.84;4994033;28;20065;-69
2022/10/10 05:03:06;;;;;;;19.48;8.32;;;;;;;9.00;100.00;96805.53;4994097;28;20036;-69
2022/10/10 05:05:32;;;;;;;15.70;7.40;;;;;;;8.96;100.00;96813.63;4994464;28;20038;-68
2022/10/10 05:07:57;;;;;;;10.40;7.60;;;;;;;8.88;100.00;96811.88;4995847;28;20109;-69
2022/10/10 05:10:24;;;;;;;12.80;7.50;;;;;;;8.85;100.00;96809.06;4998540;28;20112;-69
2022/10/10 05:12:50;;;;;;;16.02;7.50;;;;;;;8.82;100.00;96816.00;4996618;28;20670;-68
2022/10/10 05:15:16;;;;;;;10.00;6.80;;;;;;;8.86;100.00;96808.72;4993979;28;20030;-68
2022/10/10 05:17:42;;;;;;;12.43;6.82;;;;;;;8.97;100.00;96811.72;4994066;28;20042;-68
2022/10/10 05:20:08;;;;;;;15.23;7.47;;;;;;;9.03;100.00;96802.09;5005497;23;20038;-69
2022/10/10 05:22:33;;;;;;;9.57;7.32;;;;;;;9.10;100.00;96807.72;4994239;28;20042;-69
2022/10/10 05:24:58;;;;;;;14.02;6.82;;;;;;;9.12;100.00;96808.16;4993870;28;20382;-69
2022/10/10 05:27:25;;;;;;;9.88;7.63;;;;;;;9.12;100.00;96810.88;4993177;28;20049;-69
2022/10/10 05:29:50;;;;;;;12.55;7.40;;;;;;;9.13;100.00;96815.22;4993919;28;20037;-68
2022/10/10 05:32:16;;;;;;;14.07;8.40;;;;;;;9.03;100.00;96818.47;4992764;28;20026;-70
2022/10/10 05:34:41;;;;;;;11.05;7.90;;;;;;;8.93;100.00;96814.34;4992037;28;20030;-69
2022/10/10 05:37:07;;;;;;;10.10;7.65;;;;;;;8.82;100.00;96809.75;4993167;28;20034;-69
2022/10/10 05:39:33;;;;;;;13.10;8.50;;;;;;;8.71;100.00;96810.28;4993734;28;20038;-69
2022/10/10 05:41:58;;;;;;;13.15;8.75;;;;;;;8.58;100.00;96816.97;4976351;28;20050;-69
2022/10/10 05:44:24;;;;;;;15.73;8.98;;;;;;;8.52;100.00;96821.91;4994349;28;20125;-69
2022/10/10 05:46:49;;;;;;;17.98;9.43;;;;;;;8.55;100.00;96818.47;4999149;28;20030;-69
2022/10/10 05:49:14;;;;;;;16.25;9.52;;;;;;;8.67;100.00;96814.84;5000747;28;20108;-69
2022/10/10 05:51:40;;;;;;;13.30;8.85;;;;;;;8.77;100.00;96816.28;5002074;28;20034;-69
2022/10/10 05:54:05;;;;;;;15.32;9.68;;;;;;;8.75;100.00;96816.63;4996943;28;20112;-69
2022/10/10 05:56:31;;;;;;;15.10;9.82;;;;;;;8.71;100.00;96823.94;4994169;28;20030;-69
2022/10/10 05:58:56;;;;;;;15.63;9.23;;;;;;;8.77;100.00;96827.22;4995043;28;20487;-69
2022/10/10 06:01:21;;;;;;;15.43;10.20;;;;;;;8.87;100.00;96826.66;4994384;28;20034;-68
2022/10/10 06:03:54;;;;;;;18.65;10.50;;;;;;;9.02;100.00;96827.84;4994110;28;20038;-69
2022/10/10 06:06:21;;;;;;;18.45;10.77;;;;;;;9.02;100.00;96832.50;4993726;28;20030;-68
2022/10/10 06:08:46;;;;;;;17.92;10.13;;;;;;;9.09;100.00;96827.19;4993801;28;20674;-68
2022/10/10 06:11:12;;;;;;;18.45;10.48;;;;;;;9.04;100.00;96830.19;4993089;28;20105;-69
2022/10/10 06:13:37;;;;;;;17.75;10.45;;;;;;;8.94;100.00;96840.50;4993388;28;20117;-69
2022/10/10 06:16:03;;;;;;;22.83;11.63;;;;;;;9.00;100.00;96832.84;4992334;28;20046;-69
2022/10/10 06:18:28;;;;;;;16.50;10.93;;;;;;;9.08;100.00;96831.09;5001297;28;20061;-69
2022/10/10 06:20:54;;;;;;;20.35;11.85;;;;;;;9.15;100.00;96837.50;5009348;28;20037;-69
2022/10/10 06:23:20;;;;;;;20.38;10.63;;;;;;;9.33;100.00;96842.63;4994230;28;20398;-69
2022/10/10 06:25:46;;;;;;;17.90;9.93;;;;;;;9.50;100.00;96842.22;4994621;28;20026;-69
2022/10/10 06:28:11;;;;;;;15.38;9.32;;;;;;;9.56;100.00;96842.72;5004491;28;20030;-69
2022/10/10 06:30:42;;;;;;;14.20;9.80;;;;;;;9.70;100.00;96839.53;4991761;28;20026;-69
2022/10/10 06:33:07;;;;;;;15.35;8.63;;;;;;;9.82;100.00;96846.84;4993202;28;20399;-69
2022/10/10 06:35:36;;;;;;;26.52;17.10;;;;;;;9.68;100.00;96847.31;4991178;28;20045;-69
2022/10/10 06:38:02;;;;;;;23.10;13.35;;;;;;;9.67;100.00;96842.97;4993178;28;20088;-69
2022/10/10 06:40:28;;;;;;;27.70;14.05;;;;;;;9.73;100.00;96847.81;4992756;28;20054;-70
2022/10/10 06:42:54;;;;;;;34.72;21.05;;;;;;;9.70;100.00;96845.00;4994893;28;20085;-69
2022/10/10 06:45:19;;;;;;;35.28;21.70;;;;;;;9.64;100.00;96849.97;4994287;28;20030;-69
2022/10/10 06:47:44;;;;;;;36.47;26.58;;;;;;;9.40;100.00;96847.44;4990966;28;20042;-68
2022/10/10 06:50:10;;;;;;;41.65;20.17;;;;;;;9.30;100.00;96855.03;4990307;28;20353;-67
2022/10/10 06:52:35;;;;;;;33.83;13.73;;;;;;;9.37;100.00;96851.69;4993683;28;20057;-68
2022/10/10 06:55:01;;;;;;;47.67;14.63;;;;;;;9.65;100.00;96857.03;4985439;28;20038;-68
2022/10/10 06:57:27;;;;;;;47.38;14.23;;;;;;;9.77;100.00;96856.88;4977799;28;20499;-68
2022/10/10 06:59:52;;;;;;;42.58;12.38;;;;;;;9.88;100.00;96861.81;4980488;28;20754;-68
2022/10/10 07:02:18;;;;;;;28.65;12.88;;;;;;;9.98;100.00;96866.72;4976471;28;20057;-68
2022/10/10 07:04:44;;;;;;;41.25;13.55;;;;;;;10.06;100.00;96868.44;4982624;28;20046;-68
2022/10/10 07:07:09;;;;;;;40.42;13.18;;;;;;;10.00;100.00;96871.84;4975562;28;20046;-69
2022/10/10 07:09:34;;;;;;;56.65;14.57;;;;;;;10.09;100.00;96872.41;4992890;28;20050;-69
2022/10/10 07:12:00;;;;;;;47.20;12.15;;;;;;;10.24;100.00;96874.28;4990151;28;20042;-68
2022/10/10 07:14:26;;;;;;;42.88;12.65;;;;;;;10.29;100.00;96871.25;4977958;28;20091;-67
2022/10/10 07:16:51;;;;;;;49.85;15.30;;;;;;;10.41;100.00;96881.31;4981928;28;20039;-68
2022/10/10 07:19:17;;;;;;;36.60;12.75;;;;;;;10.57;100.00;96886.72;4976747;28;20097;-68
2022/10/10 07:21:43;;;;;;;27.33;12.98;;;;;;;10.68;100.00;96884.19;4982031;28;20066;-68
2022/10/10 07:24:08;;;;;;;32.60;12.75;;;;;;;11.01;100.00;96883.59;4976122;28;20053;-67
2022/10/10 07:26:37;;;;;;;25.88;12.43;;;;;;;11.33;100.00;96888.06;4981581;28;20043;-68
2022/10/10 07:29:04;;;;;;;30.00;11.15;;;;;;;11.59;100.00;96890.00;4980892;28;20053;-67
2022/10/10 07:31:29;;;;;;;28.58;11.90;;;;;;;11.79;100.00;96893.44;4978836;28;20050;-68
2022/10/10 07:33:55;;;;;;;21.05;13.18;;;;;;;11.65;100.00;96896.78;4980259;28;20051;-69
2022/10/10 07:36:20;;;;;;;18.45;11.25;;;;;;;11.74;100.00;96889.09;4988638;28;20042;-68
2022/10/10 07:38:50;;;;;;;17.65;10.20;;;;;;;11.85;100.00;96900.22;4989537;28;20719;-68
2022/10/10 07:41:16;;;;;;;17.73;11.52;;;;;;;12.13;100.00;96901.78;4977847;28;20406;-68
2022/10/10 07:43:41;;;;;;;16.83;10.05;;;;;;;12.31;100.00;96894.56;4980673;28;20046;-68
2022/10/10 07:46:17;;;;;;;15.95;9.98;;;;;;;12.40;100.00;96897.81;4976613;28;20483;-68
2022/10/10 07:48:43;;;;;;;15.50;10.05;;;;;;;12.66;100.00;96898.13;4980758;28;20177;-68
2022/10/10 07:51:09;;;;;;;17.33;9.82;;;;;;;12.80;100.00;96912.03;4983964;28;20042;-69
2022/10/10 07:53:34;;;;;;;19.48;9.38;;;;;;;12.99;100.00;96909.09;4982386;28;20046;-68
2022/10/10 07:56:03;;;;;;;16.17;9.55;;;;;;;13.21;100.00;96914.78;4981778;28;20097;-68
2022/10/10 07:58:29;;;;;;;16.60;10.02;;;;;;;13.41;100.00;96917.38;4982936;28;20097;-67
2022/10/10 08:01:10;;;;;;;14.95;10.23;;;;;;;13.68;100.00;96917.97;4985607;28;20442;-67
2022/10/10 08:03:36;;;;;;;15.27;9.02;;;;;;;13.75;100.00;96916.06;4984830;28;20043;-67
2022/10/10 08:06:08;;;;;;;15.55;8.65;;;;;;;13.61;100.00;96915.94;4984116;28;20038;-68
2022/10/10 08:08:34;;;;;;;14.95;9.27;;;;;;;13.48;100.00;96920.19;4985660;28;20054;-68
2022/10/10 08:11:00;;;;;;;13.38;9.98;;;;;;;13.74;100.00;96914.50;4985229;28;20157;-67
2022/10/10 08:13:26;;;;;;;15.35;10.70;;;;;;;14.02;100.00;96915.06;4995042;28;20077;-68
2022/10/10 08:15:52;;;;;;;16.92;9.95;;;;;;;14.29;100.00;96916.38;5002785;28;20042;-68
2022/10/10 08:18:18;;;;;;;19.85;10.48;;;;;;;14.57;100.00;96914.97;5000206;28;20045;-68
2022/10/10 08:20:44;;;;;;;17.15;10.60;;;;;;;14.71;100.00;96917.81;5003949;28;20065;-68
2022/10/10 08:23:09;;;;;;;15.55;10.48;;;;;;;14.78;100.00;96911.50;5000360;28;20046;-68
2022/10/10 08:25:35;;;;;;;16.95;10.35;;;;;;;14.87;100.00;96922.16;5005332;28;20042;-68
2022/10/10 08:28:00;;;;;;;17.17;10.60;;;;;;;14.96;100.00;96921.81;5005888;28;20033;-69
2022/10/10 08:30:26;;;;;;;17.63;11.23;;;;;;;14.75;100.00;96920.56;5000894;28;20042;-68
2022/10/10 08:32:51;;;;;;;18.55;10.50;;;;;;;14.86;100.00;96924.16;5004522;28;20045;-68
2022/10/10 08:35:17;;;;;;;16.20;10.35;;;;;;;15.01;100.00;96921.44;4999809;28;20113;-68
2022/10/10 08:37:42;;;;;;;15.90;10.15;;;;;;;14.98;100.00;96925.78;5004640;28;20064;-67
2022/10/10 08:40:14;;;;;;;15.43;9.75;;;;;;;15.20;100.00;96923.06;4999076;28;20045;-68
2022/10/10 08:42:44;;;;;;;13.38;8.50;;;;;;;15.26;100.00;96927.00;5005181;28;20137;-68
2022/10/10 08:45:15;;;;;;;13.27;8.45;;;;;;;15.32;100.00;96925.41;5000630;28;20045;-69
2022/10/10 08:47:59;;;;;;;13.60;8.93;;;;;;;15.43;100.00;96928.19;5006485;28;20096;-68
2022/10/10 08:50:31;;;;;;;15.30;8.55;;;;;;;15.51;100.00;96932.53;4998896;28;20041;-68
2022/10/10 08:53:06;;;;;;;13.98;8.25;;;;;;;15.44;100.00;96933.31;5003345;28;20046;-67
2022/10/10 08:55:34;;;;;;;18.90;9.32;;;;;;;15.59;100.00;96931.38;4990560;28;20090;-67
2022/10/10 08:58:15;;;;;;;19.73;10.73;;;;;;;15.55;100.00;96929.78;4984070;28;20038;-68
2022/10/10 09:00:46;;;;;;;20.92;9.65;;;;;;;15.68;100.00;96917.97;4986435;28;20076;-68
2022/10/10 09:03:26;;;;;;;20.60;9.85;;;;;;;16.04;100.00;96933.72;4982823;28;20523;-68
2022/10/10 09:06:28;;;;;;;20.38;9.68;;;;;;;16.10;100.00;96925.81;4984526;28;20042;-68
2022/10/10 09:09:35;;;;;;;17.00;9.27;;;;;;;16.27;100.00;96922.22;4988689;28;20039;-68
2022/10/10 09:12:38;;;;;;;14.32;9.10;;;;;;;16.33;100.00;96925.38;4905856;29;20048;-68
2022/10/10 09:15:28;;;;;;;13.43;7.65;;;;;;;16.35;100.00;96923.00;4921947;29;20072;-67
2022/10/10 09:18:03;;;;;;;12.90;8.77;;;;;;;16.26;100.00;96934.50;4990577;28;20038;-68
2022/10/10 09:20:52;;;;;;;15.20;8.93;;;;;;;16.33;100.00;96925.38;4981472;28;20087;-68
2022/10/10 09:23:27;;;;;;;15.38;8.55;;;;;;;16.47;100.00;96930.88;4980240;28;20450;-69
2022/10/10 09:26:03;;;;;;;15.57;9.00;;;;;;;16.88;100.00;96932.31;4997612;28;20050;-69
2022/10/10 09:28:29;;;;;;;14.65;9.40;;;;;;;16.35;100.00;96931.28;4983267;28;20047;-67
2022/10/10 09:30:58;;;;;;;12.45;9.00;;;;;;;16.92;100.00;96931.09;4984934;28;20045;-69
2022/10/10 09:33:35;;;;;;;14.88;8.15;;;;;;;17.43;100.00;96930.81;4980353;28;20031;-68
2022/10/10 09:36:08;;;;;;;15.68;8.07;;;;;;;17.36;100.00;96934.44;4966790;28;20104;-69
2022/10/10 09:38:54;;;;;;;16.20;8.35;;;;;;;17.51;100.00;96933.13;4984011;28;20529;-68
2022/10/10 09:41:30;;;;;;;16.65;8.43;;;;;;;17.23;100.00;96936.06;4980052;28;20054;-68
2022/10/10 09:43:57;;;;;;;14.10;8.15;;;;;;;16.90;100.00;96941.00;4985390;28;20368;-68
2022/10/10 09:46:24;;;;;;;15.95;8.43;;;;;;;17.41;100.00;96935.97;4978521;28;20061;-68
2022/10/10 09:48:50;;;;;;;16.08;7.40;;;;;;;17.73;100.00;96941.25;4984515;28;20073;-69
2022/10/10 09:51:17;;;;;;;12.55;8.23;;;;;;;17.49;100.00;96943.81;4978454;28;20038;-69
2022/10/10 09:53:45;;;;;;;14.75;7.13;;;;;;;17.70;100.00;96942.88;4984147;28;20050;-69
2022/10/10 09:56:17;;;;;;;17.98;7.13;;;;;;;17.90;100.00;96937.59;4967143;28;20038;-69
2022/10/10 09:58:46;;;;;;;11.25;6.90;;;;;;;18.07;100.00;96941.38;4983017;28;20502;-69
2022/10/10 10:01:19;;;;;;;9.95;6.25;;;;;;;18.63;100.00;96945.97;4978332;28;20042;-67
2022/10/10 10:04:14;;;;;;;15.13;7.60;;;;;;;18.70;100.00;96951.44;4982097;28;20034;-69
2022/10/10 10:06:46;;;;;;;17.35;7.60;;;;;;;18.73;100.00;96945.06;4986129;28;20038;-68
2022/10/10 10:09:18;;;;;;;10.38;7.10;;;;;;;17.86;100.00;96945.16;4982709;28;20062;-68
2022/10/10 10:11:46;;;;;;;14.55;7.53;;;;;;;16.36;100.00;96943.94;4986262;28;20056;-69
2022/10/10 10:14:21;;;;;;;13.18;6.93;;;;;;;17.24;100.00;96937.66;4977037;28;20038;-69
2022/10/10 10:16:47;;;;;;;18.90;8.52;;;;;;;17.82;100.00;96943.56;4982282;28;20549;-69
2022/10/10 10:19:42;;;;;;;13.45;7.88;;;;;;;18.28;100.00;96939.63;4978394;28;20054;-69
2022/10/10 10:22:52;;;;;;;15.00;7.25;;;;;;;18.33;100.00;96939.94;4979242;28;20061;-69
2022/10/10 10:25:36;;;;;;;11.98;6.40;;;;;;;18.51;100.00;96952.81;4976885;28;20042;-69
2022/10/10 10:28:14;;;;;;;13.35;8.00;;;;;;;18.51;100.00;96947.28;4980228;28;20053;-69
2022/10/10 10:30:41;;;;;;;14.55;7.55;;;;;;;18.26;100.00;96945.56;4981571;28;20046;-69
2022/10/10 10:33:09;;;;;;;14.02;7.22;;;;;;;17.96;100.00;96949.03;4980381;28;20053;-68
2022/10/10 10:36:06;;;;;;;12.50;8.13;;;;;;;17.90;100.00;96954.22;4987401;28;20053;-69
2022/10/10 10:38:47;;;;;;;11.35;7.68;;;;;;;17.76;100.00;96955.09;5002719;28;20096;-69
2022/10/10 10:41:32;;;;;;;15.15;7.43;;;;;;;17.84;100.00;96955.03;4998179;28;20139;-69
2022/10/10 10:44:06;;;;;;;13.20;7.97;;;;;;;17.72;100.00;96953.56;5011697;28;20064;-69
2022/10/10 10:47:00;;;;;;;12.63;7.43;;;;;;;17.41;100.00;96955.34;5015143;28;20053;-69
2022/10/10 10:49:25;;;;;;;17.63;9.02;;;;;;;17.45;100.00;96954.13;5000926;28;20041;-69
2022/10/10 10:52:18;;;;;;;15.37;8.33;;;;;;;17.76;100.00;96952.31;5002700;28;20479;-68
2022/10/10 10:55:07;;;;;;;14.15;7.82;;;;;;;17.65;100.00;96956.38;5000955;28;20280;-68
2022/10/10 10:57:50;;;;;;;12.25;8.15;;;;;;;17.05;100.00;96956.34;5003196;28;20061;-68
2022/10/10 11:00:19;;;;;;;12.48;7.78;;;;;;;16.96;100.00;96948.50;4996494;28;20042;-68
2022/10/10 11:03:09;;;;;;;12.75;8.30;;;;;;;16.99;100.00;96944.13;5001893;28;20517;-68
2022/10/10 11:05:40;;;;;;;12.50;8.52;;;;;;;17.12;100.00;96953.53;4999407;28;20056;-68
2022/10/10 11:08:34;;;;;;;13.20;7.65;;;;;;;17.37;100.00;96947.06;4996564;28;20091;-68
2022/10/10 11:11:18;;;;;;;12.30;8.30;;;;;;;17.37;100.00;96945.06;5007811;28;20069;-68
2022/10/10 11:13:58;;;;;;;12.48;8.32;;;;;;;17.35;100.00;96947.47;5014055;28;20041;-67
2022/10/10 11:16:31;;;;;;;;;;;;;;;17.25;100.00;96939.22;4996985;28;20272;-68
2022/10/10 11:19:15;;;;;;;13.73;8.18;;;;;;;17.13;100.00;96934.97;5002110;28;19936;-68
2022/10/10 11:21:48;;;;;;;17.90;9.43;;;;;;;17.32;100.00;96941.94;5001376;28;20077;-68
2022/10/10 11:24:43;;;;;;;14.48;8.57;;;;;;;17.47;100.00;96937.91;4997734;28;20491;-68
2022/10/10 11:27:41;;;;;;;13.05;7.88;;;;;;;17.53;100.00;96936.25;4994826;28;20050;-68
2022/10/10 11:30:19;;;;;;;13.55;8.88;;;;;;;17.72;100.00;96937.72;4998588;28;20041;-68
2022/10/10 11:33:05;;;;;;;17.05;8.27;;;;;;;17.81;100.00;96934.47;5001909;28;20089;-68
2022/10/10 11:35:49;;;;;;;13.05;7.10;;;;;;;18.37;100.00;96942.69;5001911;28;20061;-68
2022/10/10 11:38:43;;;;;;;16.67;7.50;;;;;;;18.62;100.00;96936.88;4997659;28;20037;-68